sensor_id;sensor_type;location;lat;lon;timestamp;pressure;altitude;pressure_sealevel;temperature;humidity
29907;BME280;16776;50.958;10.994;2023-04-15T00:00:43;97587.03;;;6.93;98.76
29907;BME280;16776;50.958;10.994;2023-04-15T00:03:09;97584.53;;;6.92;99.26
29907;BME280;16776;50.958;10.994;2023-04-15T00:05:36;97580.34;;;6.89;98.63
29907;BME280;16776;50.958;10.994;2023-04-15T00:08:03;97581.19;;;6.90;99.42
29907;BME280;16776;50.958;10.994;2023-04-15T00:10:30;97585.50;;;6.88;99.95
29907;BME280;16776;50.958;10.994;2023-04-15T00:12:57;97586.38;;;6.87;98.82
29907;BME280;16776;50.958;10.994;2023-04-15T00:15:25;97581.22;;;6.88;99.38
29907;BME280;16776;50.958;10.994;2023-04-15T00:17:54;97579.50;;;6.89;99.49
29907;BME280;16776;50.958;10.994;2023-04-15T00:20:21;97580.47;;;6.85;99.00
29907;BME280;16776;50.958;10.994;2023-04-15T00:22:47;97579.63;;;6.84;99.06
29907;BME280;16776;50.958;10.994;2023-04-15T00:25:14;97575.41;;;6.83;99.46
29907;BME280;16776;50.958;10.994;2023-04-15T00:27:41;97571.16;;;6.82;99.26
29907;BME280;16776;50.958;10.994;2023-04-15T00:30:08;97566.94;;;6.81;99.13
29907;BME280;16776;50.958;10.994;2023-04-15T00:32:36;97565.22;;;6.82;99.45
29907;BME280;16776;50.958;10.994;2023-04-15T00:35:03;97557.59;;;6.79;99.85
29907;BME280;16776;50.958;10.994;2023-04-15T00:37:29;97561.88;;;6.78;99.33
29907;BME280;16776;50.958;10.994;2023-04-15T00:39:56;97558.50;;;6.78;100.00
29907;BME280;16776;50.958;10.994;2023-04-15T00:42:23;97559.31;;;6.78;99.04
29907;BME280;16776;50.958;10.994;2023-04-15T00:44:50;97556.88;;;6.75;99.63
29907;BME280;16776;50.958;10.994;2023-04-15T00:47:17;97554.31;;;6.75;99.86
29907;BME280;16776;50.958;10.994;2023-04-15T00:49:45;97550.03;;;6.76;99.78
29907;BME280;16776;50.958;10.994;2023-04-15T00:52:12;97553.47;;;6.73;99.01
29907;BME280;16776;50.958;10.994;2023-04-15T00:54:39;97556.91;;;6.72;99.64
29907;BME280;16776;50.958;10.994;2023-04-15T00:57:06;97551.84;;;6.71;99.23
29907;BME280;16776;50.958;10.994;2023-04-15T00:59:33;97550.19;;;6.70;99.09
29907;BME280;16776;50.958;10.994;2023-04-15T01:02:00;97552.72;;;6.70;99.09
29907;BME280;16776;50.958;10.994;2023-04-15T01:04:26;97552.78;;;6.68;99.09
29907;BME280;16776;50.958;10.994;2023-04-15T01:06:54;97549.34;;;6.69;98.91
29907;BME280;16776;50.958;10.994;2023-04-15T01:09:21;97560.47;;;6.66;99.03
29907;BME280;16776;50.958;10.994;2023-04-15T01:11:48;97549.47;;;6.64;99.48
29907;BME280;16776;50.958;10.994;2023-04-15T01:14:15;97542.69;;;6.63;98.94
29907;BME280;16776;50.958;10.994;2023-04-15T01:16:41;97544.41;;;6.63;99.47
29907;BME280;16776;50.958;10.994;2023-04-15T01:19:09;97539.28;;;6.63;99.75
29907;BME280;16776;50.958;10.994;2023-04-15T01:21:36;97541.00;;;6.62;98.91
29907;BME280;16776;50.958;10.994;2023-04-15T01:24:08;97532.34;;;6.66;99.23
29907;BME280;16776;50.958;10.994;2023-04-15T01:26:37;97536.75;;;6.61;99.47
29907;BME280;16776;50.958;10.994;2023-04-15T01:29:03;97529.97;;;6.60;99.36
29907;BME280;16776;50.958;10.994;2023-04-15T01:31:31;97530.84;;;6.59;98.96
29907;BME280;16776;50.958;10.994;2023-04-15T01:33:58;97526.63;;;6.58;99.89
29907;BME280;16776;50.958;10.994;2023-04-15T01:36:25;97528.34;;;6.58;99.37
29907;BME280;16776;50.958;10.994;2023-04-15T01:38:52;97531.75;;;6.58;98.68
29907;BME280;16776;50.958;10.994;2023-04-15T01:41:20;97527.41;;;6.60;99.32
29907;BME280;16776;50.958;10.994;2023-04-15T01:43:49;97530.84;;;6.59;99.91
29907;BME280;16776;50.958;10.994;2023-04-15T01:46:18;97523.22;;;6.58;99.77
29907;BME280;16776;50.958;10.994;2023-04-15T01:48:45;97523.22;;;6.58;99.65
29907;BME280;16776;50.958;10.994;2023-04-15T01:51:12;97512.16;;;6.57;99.86
29907;BME280;16776;50.958;10.994;2023-04-15T01:53:38;97517.28;;;6.57;99.22
29907;BME280;16776;50.958;10.994;2023-04-15T01:56:05;97518.13;;;6.58;99.86
29907;BME280;16776;50.958;10.994;2023-04-15T01:58:32;97518.94;;;6.58;99.49
29907;BME280;16776;50.958;10.994;2023-04-15T02:01:00;97516.28;;;6.61;100.00
29907;BME280;16776;50.958;10.994;2023-04-15T02:03:28;97513.78;;;6.60;100.00
29907;BME280;16776;50.958;10.994;2023-04-15T02:05:55;97510.50;;;6.55;99.73
29907;BME280;16776;50.958;10.994;2023-04-15T02:08:22;97516.28;;;6.61;99.90
29907;BME280;16776;50.958;10.994;2023-04-15T02:10:48;97518.81;;;6.63;99.96
29907;BME280;16776;50.958;10.994;2023-04-15T02:13:15;97515.41;;;6.62;99.61
29907;BME280;16776;50.958;10.994;2023-04-15T02:15:46;97518.66;;;6.68;99.71
29907;BME280;16776;50.958;10.994;2023-04-15T02:18:14;97520.44;;;6.65;99.78
29907;BME280;16776;50.958;10.994;2023-04-15T02:20:40;97513.72;;;6.61;100.00
29907;BME280;16776;50.958;10.994;2023-04-15T02:23:08;97511.19;;;6.61;98.87
29907;BME280;16776;50.958;10.994;2023-04-15T02:25:35;97510.34;;;6.61;99.97
29907;BME280;16776;50.958;10.994;2023-04-15T02:28:03;97506.09;;;6.60;99.43
29907;BME280;16776;50.958;10.994;2023-04-15T02:30:33;97510.38;;;6.59;99.54
29907;BME280;16776;50.958;10.994;2023-04-15T02:32:59;97504.41;;;6.59;99.90
29907;BME280;16776;50.958;10.994;2023-04-15T02:35:27;97502.69;;;6.59;100.00
29907;BME280;16776;50.958;10.994;2023-04-15T02:37:54;97505.31;;;6.58;100.00
29907;BME280;16776;50.958;10.994;2023-04-15T02:40:21;97507.03;;;6.57;99.50
29907;BME280;16776;50.958;10.994;2023-04-15T02:42:47;97510.47;;;6.56;99.32
29907;BME280;16776;50.958;10.994;2023-04-15T02:45:14;97506.25;;;6.55;100.00
29907;BME280;16776;50.958;10.994;2023-04-15T02:47:42;97507.13;;;6.54;99.64
29907;BME280;16776;50.958;10.994;2023-04-15T02:50:11;97501.97;;;6.56;100.00
29907;BME280;16776;50.958;10.994;2023-04-15T02:52:41;97500.31;;;6.53;99.44
29907;BME280;16776;50.958;10.994;2023-04-15T02:55:09;97499.47;;;6.53;99.67
29907;BME280;16776;50.958;10.994;2023-04-15T02:57:35;97503.75;;;6.52;99.83
29907;BME280;16776;50.958;10.994;2023-04-15T03:00:04;97498.63;;;6.52;99.26
29907;BME280;16776;50.958;10.994;2023-04-15T03:02:34;97503.75;;;6.52;99.26
29907;BME280;16776;50.958;10.994;2023-04-15T03:05:01;97504.66;;;6.51;100.00
29907;BME280;16776;50.958;10.994;2023-04-15T03:07:28;97506.38;;;6.51;100.00
29907;BME280;16776;50.958;10.994;2023-04-15T03:09:56;97508.88;;;6.52;100.00
29907;BME280;16776;50.958;10.994;2023-04-15T03:12:22;97508.13;;;6.49;99.85
29907;BME280;16776;50.958;10.994;2023-04-15T03:14:49;97513.25;;;6.49;99.95
29907;BME280;16776;50.958;10.994;2023-04-15T03:17:16;97512.41;;;6.48;99.74
29907;BME280;16776;50.958;10.994;2023-04-15T03:19:43;97509.03;;;6.46;100.00
29907;BME280;16776;50.958;10.994;2023-04-15T03:22:09;97509.03;;;6.46;99.73
29907;BME280;16776;50.958;10.994;2023-04-15T03:24:36;97506.47;;;6.46;100.00
29907;BME280;16776;50.958;10.994;2023-04-15T03:27:07;97504.75;;;6.47;100.00
29907;BME280;16776;50.958;10.994;2023-04-15T03:29:34;97499.72;;;6.45;100.00
29907;BME280;16776;50.958;10.994;2023-04-15T03:32:01;97500.59;;;6.44;99.83
29907;BME280;16776;50.958;10.994;2023-04-15T03:34:27;97496.34;;;6.43;100.00
29907;BME280;16776;50.958;10.994;2023-04-15T03:36:54;97500.63;;;6.43;100.00
29907;BME280;16776;50.958;10.994;2023-04-15T03:39:21;97500.69;;;6.40;100.00
29907;BME280;16776;50.958;10.994;2023-04-15T03:41:47;97494.81;;;6.38;100.00
29907;BME280;16776;50.958;10.994;2023-04-15T03:44:16;97499.06;;;6.39;100.00
29907;BME280;16776;50.958;10.994;2023-04-15T03:46:42;97498.28;;;6.35;100.00
29907;BME280;16776;50.958;10.994;2023-04-15T03:49:09;97494.09;;;6.33;100.00
29907;BME280;16776;50.958;10.994;2023-04-15T03:51:36;97494.97;;;6.32;100.00
29907;BME280;16776;50.958;10.994;2023-04-15T03:54:02;97490.72;;;6.32;100.00
29907;BME280;16776;50.958;10.994;2023-04-15T03:56:29;97491.59;;;6.31;100.00
29907;BME280;16776;50.958;10.994;2023-04-15T03:58:55;97491.59;;;6.31;100.00
29907;BME280;16776;50.958;10.994;2023-04-15T04:01:23;97487.31;;;6.32;100.00
29907;BME280;16776;50.958;10.994;2023-04-15T04:03:50;97492.50;;;6.29;100.00
29907;BME280;16776;50.958;10.994;2023-04-15T04:06:16;97491.66;;;6.28;100.00
29907;BME280;16776;50.958;10.994;2023-04-15T04:08:43;97486.53;;;6.28;100.00
29907;BME280;16776;50.958;10.994;2023-04-15T04:11:10;97486.53;;;6.28;100.00
29907;BME280;16776;50.958;10.994;2023-04-15T04:13:36;97491.66;;;6.28;100.00
29907;BME280;16776;50.958;10.994;2023-04-15T04:16:03;97489.97;;;6.27;100.00
29907;BME280;16776;50.958;10.994;2023-04-15T04:18:31;97494.22;;;6.28;100.00
29907;BME280;16776;50.958;10.994;2023-04-15T04:20:59;97486.66;;;6.25;100.00
29907;BME280;16776;50.958;10.994;2023-04-15T04:23:25;97490.06;;;6.24;100.00
29907;BME280;16776;50.958;10.994;2023-04-15T04:25:52;97485.00;;;6.22;100.00
29907;BME280;16776;50.958;10.994;2023-04-15T04:28:19;97489.28;;;6.22;100.00
29907;BME280;16776;50.958;10.994;2023-04-15T04:30:45;97491.84;;;6.20;100.00
29907;BME280;16776;50.958;10.994;2023-04-15T04:33:12;97491.84;;;6.20;100.00
29907;BME280;16776;50.958;10.994;2023-04-15T04:35:40;97496.09;;;6.21;100.00
29907;BME280;16776;50.958;10.994;2023-04-15T04:38:07;97488.50;;;6.20;100.00
29907;BME280;16776;50.958;10.994;2023-04-15T04:40:33;97495.34;;;6.18;100.00
29907;BME280;16776;50.958;10.994;2023-04-15T04:43:00;97497.06;;;6.17;100.00
29907;BME280;16776;50.958;10.994;2023-04-15T04:45:26;97493.66;;;6.18;100.00
29907;BME280;16776;50.958;10.994;2023-04-15T04:47:53;97497.06;;;6.17;100.00
29907;BME280;16776;50.958;10.994;2023-04-15T04:50:19;97495.38;;;6.16;100.00
29907;BME280;16776;50.958;10.994;2023-04-15T04:52:47;97498.75;;;6.18;100.00
29907;BME280;16776;50.958;10.994;2023-04-15T04:55:14;97492.88;;;6.15;100.00
29907;BME280;16776;50.958;10.994;2023-04-15T04:57:41;97486.06;;;6.14;100.00
29907;BME280;16776;50.958;10.994;2023-04-15T05:00:08;97485.28;;;6.13;100.00
29907;BME280;16776;50.958;10.994;2023-04-15T05:02:35;97488.69;;;6.12;100.00
29907;BME280;16776;50.958;10.994;2023-04-15T05:05:01;97483.66;;;6.09;100.00
29907;BME280;16776;50.958;10.994;2023-04-15T05:07:28;97485.38;;;6.09;100.00
29907;BME280;16776;50.958;10.994;2023-04-15T05:09:56;97487.06;;;6.10;100.00
29907;BME280;16776;50.958;10.994;2023-04-15T05:12:22;97489.72;;;6.07;100.00
29907;BME280;16776;50.958;10.994;2023-04-15T05:14:49;97493.97;;;6.06;100.00
29907;BME280;16776;50.958;10.994;2023-04-15T05:17:15;97491.44;;;6.05;100.00
29907;BME280;16776;50.958;10.994;2023-04-15T05:19:42;97483.75;;;6.06;100.00
29907;BME280;16776;50.958;10.994;2023-04-15T05:22:08;97481.13;;;6.08;100.00
29907;BME280;16776;50.958;10.994;2023-04-15T05:24:35;97479.47;;;6.07;100.00
29907;BME280;16776;50.958;10.994;2023-04-15T05:27:03;97487.91;;;6.10;100.00
29907;BME280;16776;50.958;10.994;2023-04-15T05:29:29;97483.69;;;6.08;100.00
29907;BME280;16776;50.958;10.994;2023-04-15T05:31:56;97493.88;;;6.09;100.00
29907;BME280;16776;50.958;10.994;2023-04-15T05:34:22;97492.09;;;6.13;100.00
29907;BME280;16776;50.958;10.994;2023-04-15T05:36:49;97490.81;;;6.27;100.00
29907;BME280;16776;50.958;10.994;2023-04-15T05:39:16;97484.97;;;6.53;100.00
29907;BME280;16776;50.958;10.994;2023-04-15T05:41:43;97487.56;;;6.83;100.00
29907;BME280;16776;50.958;10.994;2023-04-15T05:44:11;97488.50;;;7.08;100.00
29907;BME280;16776;50.958;10.994;2023-04-15T05:46:37;97492.28;;;7.23;100.00
29907;BME280;16776;50.958;10.994;2023-04-15T05:49:04;97486.84;;;7.33;100.00
29907;BME280;16776;50.958;10.994;2023-04-15T05:51:30;97494.38;;;7.38;100.00
29907;BME280;16776;50.958;10.994;2023-04-15T05:53:57;97483.19;;;7.40;100.00
29907;BME280;16776;50.958;10.994;2023-04-15T05:56:23;97477.28;;;7.38;100.00
29907;BME280;16776;50.958;10.994;2023-04-15T05:58:51;97466.56;;;7.27;100.00
29907;BME280;16776;50.958;10.994;2023-04-15T06:01:19;97481.75;;;7.32;100.00
29907;BME280;16776;50.958;10.994;2023-04-15T06:03:46;97487.13;;;7.24;100.00
29907;BME280;16776;50.958;10.994;2023-04-15T06:06:13;97476.38;;;7.13;100.00
29907;BME280;16776;50.958;10.994;2023-04-15T06:08:39;97484.88;;;7.15;100.00
29907;BME280;16776;50.958;10.994;2023-04-15T06:11:09;97481.50;;;7.13;100.00
29907;BME280;16776;50.958;10.994;2023-04-15T06:13:35;97475.81;;;7.03;100.00
29907;BME280;16776;50.958;10.994;2023-04-15T06:16:02;97488.75;;;6.99;100.00
29907;BME280;16776;50.958;10.994;2023-04-15T06:18:30;97488.00;;;6.97;100.00
29907;BME280;16776;50.958;10.994;2023-04-15T06:20:57;97491.63;;;6.90;100.00
29907;BME280;16776;50.958;10.994;2023-04-15T06:23:23;97473.28;;;6.76;100.00
29907;BME280;16776;50.958;10.994;2023-04-15T06:25:50;97485.03;;;6.81;100.00
29907;BME280;16776;50.958;10.994;2023-04-15T06:28:17;97484.31;;;6.78;100.00
29907;BME280;16776;50.958;10.994;2023-04-15T06:30:43;97486.94;;;6.73;100.00
29907;BME280;16776;50.958;10.994;2023-04-15T06:33:10;97493.84;;;6.71;100.00
29907;BME280;16776;50.958;10.994;2023-04-15T06:35:38;97496.44;;;6.70;100.00
29907;BME280;16776;50.958;10.994;2023-04-15T06:38:05;97498.31;;;6.64;100.00
29907;BME280;16776;50.958;10.994;2023-04-15T06:40:31;97500.94;;;6.61;100.00
29907;BME280;16776;50.958;10.994;2023-04-15T06:42:58;97501.81;;;6.60;100.00
29907;BME280;16776;50.958;10.994;2023-04-15T06:45:25;97499.38;;;6.57;100.00
29907;BME280;16776;50.958;10.994;2023-04-15T06:47:52;97504.53;;;6.56;100.00
29907;BME280;16776;50.958;10.994;2023-04-15T06:50:18;97501.16;;;6.54;100.00
29907;BME280;16776;50.958;10.994;2023-04-15T06:52:46;97507.13;;;6.54;100.00
29907;BME280;16776;50.958;10.994;2023-04-15T06:55:13;97505.53;;;6.50;100.00
29907;BME280;16776;50.958;10.994;2023-04-15T06:57:40;97496.19;;;6.49;100.00
29907;BME280;16776;50.958;10.994;2023-04-15T07:00:07;97499.63;;;6.48;100.00
29907;BME280;16776;50.958;10.994;2023-04-15T07:02:35;97498.81;;;6.46;100.00
29907;BME280;16776;50.958;10.994;2023-04-15T07:05:02;97496.31;;;6.45;100.00
29907;BME280;16776;50.958;10.994;2023-04-15T07:07:28;97494.63;;;6.44;100.00
29907;BME280;16776;50.958;10.994;2023-04-15T07:09:56;97493.00;;;6.41;100.00
29907;BME280;16776;50.958;10.994;2023-04-15T07:12:23;97496.50;;;6.39;100.00
29907;BME280;16776;50.958;10.994;2023-04-15T07:14:50;97502.56;;;6.35;100.00
29907;BME280;16776;50.958;10.994;2023-04-15T07:17:16;97503.44;;;6.34;100.00
29907;BME280;16776;50.958;10.994;2023-04-15T07:19:43;97504.38;;;6.31;100.00
29907;BME280;16776;50.958;10.994;2023-04-15T07:22:09;97504.41;;;6.30;100.00
29907;BME280;16776;50.958;10.994;2023-04-15T07:24:36;97505.31;;;6.27;100.00
29907;BME280;16776;50.958;10.994;2023-04-15T07:27:04;97503.59;;;6.27;100.00
29907;BME280;16776;50.958;10.994;2023-04-15T07:29:30;97502.03;;;6.23;100.00
29907;BME280;16776;50.958;10.994;2023-04-15T07:31:57;97491.81;;;6.22;100.00
29907;BME280;16776;50.958;10.994;2023-04-15T07:34:23;97496.94;;;6.22;100.00
29907;BME280;16776;50.958;10.994;2023-04-15T07:36:50;97495.25;;;6.21;100.00
29907;BME280;16776;50.958;10.994;2023-04-15T07:39:17;97502.94;;;6.21;100.00
29907;BME280;16776;50.958;10.994;2023-04-15T07:41:47;97503.84;;;6.20;100.00
29907;BME280;16776;50.958;10.994;2023-04-15T07:44:15;97504.66;;;6.20;100.00
29907;BME280;16776;50.958;10.994;2023-04-15T07:46:42;97508.94;;;6.20;100.00
29907;BME280;16776;50.958;10.994;2023-04-15T07:49:08;97504.72;;;6.19;100.00
29907;BME280;16776;50.958;10.994;2023-04-15T07:51:35;97506.38;;;6.20;100.00
29907;BME280;16776;50.958;10.994;2023-04-15T07:54:02;97502.09;;;6.20;100.00
29907;BME280;16776;50.958;10.994;2023-04-15T07:56:28;97514.00;;;6.21;100.00
29907;BME280;16776;50.958;10.994;2023-04-15T07:58:55;97513.16;;;6.21;100.00
29907;BME280;16776;50.958;10.994;2023-04-15T08:01:23;97517.41;;;6.22;100.00
29907;BME280;16776;50.958;10.994;2023-04-15T08:03:50;97520.03;;;6.19;100.00
29907;BME280;16776;50.958;10.994;2023-04-15T08:06:16;97517.44;;;6.20;100.00
29907;BME280;16776;50.958;10.994;2023-04-15T08:08:43;97522.50;;;6.22;100.00
29907;BME280;16776;50.958;10.994;2023-04-15T08:11:10;97524.19;;;6.23;100.00
29907;BME280;16776;50.958;10.994;2023-04-15T08:13:37;97523.31;;;6.24;100.00
29907;BME280;16776;50.958;10.994;2023-04-15T08:16:16;97521.41;;;6.32;100.00
29907;BME280;16776;50.958;10.994;2023-04-15T08:18:45;97524.13;;;6.26;100.00
29907;BME280;16776;50.958;10.994;2023-04-15T08:21:12;97519.78;;;6.28;100.00
29907;BME280;16776;50.958;10.994;2023-04-15T08:23:39;97413.41;;;5.62;100.00
29907;BME280;16776;50.958;10.994;2023-04-15T08:26:07;97520.63;;;6.29;100.00
29907;BME280;16776;50.958;10.994;2023-04-15T08:28:34;97518.06;;;6.29;100.00
29907;BME280;16776;50.958;10.994;2023-04-15T08:31:01;97517.16;;;6.31;100.00
29907;BME280;16776;50.958;10.994;2023-04-15T08:33:28;97522.22;;;6.33;100.00
29907;BME280;16776;50.958;10.994;2023-04-15T08:35:56;97517.84;;;6.36;100.00
29907;BME280;16776;50.958;10.994;2023-04-15T08:38:23;97524.66;;;6.37;100.00
29907;BME280;16776;50.958;10.994;2023-04-15T08:40:49;97522.91;;;6.39;100.00
29907;BME280;16776;50.958;10.994;2023-04-15T08:43:20;97523.59;;;6.44;100.00
29907;BME280;16776;50.958;10.994;2023-04-15T08:45:49;97525.38;;;6.42;100.00
29907;BME280;16776;50.958;10.994;2023-04-15T08:48:17;97516.19;;;6.35;100.00
29907;BME280;16776;50.958;10.994;2023-04-15T08:50:45;97536.31;;;6.46;100.00
29907;BME280;16776;50.958;10.994;2023-04-15T08:53:15;97532.81;;;6.50;100.00
29907;BME280;16776;50.958;10.994;2023-04-15T08:55:43;97533.66;;;6.50;100.00
29907;BME280;16776;50.958;10.994;2023-04-15T08:58:10;97538.78;;;6.50;100.00
29907;BME280;16776;50.958;10.994;2023-04-15T09:00:38;97531.19;;;6.47;100.00
29907;BME280;16776;50.958;10.994;2023-04-15T09:03:05;97536.97;;;6.54;100.00
29907;BME280;16776;50.958;10.994;2023-04-15T09:05:32;97548.03;;;6.54;100.00
29907;BME280;16776;50.958;10.994;2023-04-15T09:07:59;97554.84;;;6.55;100.00
29907;BME280;16776;50.958;10.994;2023-04-15T09:10:27;97562.44;;;6.58;100.00
29907;BME280;16776;50.958;10.994;2023-04-15T09:12:54;97553.97;;;6.56;100.00
29907;BME280;16776;50.958;10.994;2023-04-15T09:15:20;97560.75;;;6.57;100.00
29907;BME280;16776;50.958;10.994;2023-04-15T09:17:47;97569.19;;;6.59;100.00
29907;BME280;16776;50.958;10.994;2023-04-15T09:20:16;97568.28;;;6.62;100.00
29907;BME280;16776;50.958;10.994;2023-04-15T09:22:46;97568.25;;;6.63;100.00
29907;BME280;16776;50.958;10.994;2023-04-15T09:25:27;97565.53;;;6.70;100.00
29907;BME280;16776;50.958;10.994;2023-04-15T09:27:56;97575.06;;;6.64;100.00
29907;BME280;16776;50.958;10.994;2023-04-15T09:30:23;97572.53;;;6.63;100.00
29907;BME280;16776;50.958;10.994;2023-04-15T09:32:50;97570.72;;;6.66;100.00
29907;BME280;16776;50.958;10.994;2023-04-15T09:35:17;97574.13;;;6.67;100.00
29907;BME280;16776;50.958;10.994;2023-04-15T09:37:43;97577.47;;;6.69;100.00
29907;BME280;16776;50.958;10.994;2023-04-15T09:40:11;97582.50;;;6.72;100.00
29907;BME280;16776;50.958;10.994;2023-04-15T09:42:53;97586.56;;;6.81;100.00
29907;BME280;16776;50.958;10.994;2023-04-15T09:45:21;97591.00;;;6.74;100.00
29907;BME280;16776;50.958;10.994;2023-04-15T09:47:48;97583.34;;;6.73;100.00
29907;BME280;16776;50.958;10.994;2023-04-15T09:50:15;97591.84;;;6.75;100.00
29907;BME280;16776;50.958;10.994;2023-04-15T09:52:43;97596.09;;;6.76;100.00
29907;BME280;16776;50.958;10.994;2023-04-15T09:55:10;97574.97;;;6.68;100.00
29907;BME280;16776;50.958;10.994;2023-04-15T09:57:38;97586.66;;;6.78;100.00
29907;BME280;16776;50.958;10.994;2023-04-15T10:00:08;97583.16;;;6.80;100.00
29907;BME280;16776;50.958;10.994;2023-04-15T10:02:36;97591.78;;;6.78;100.00
29907;BME280;16776;50.958;10.994;2023-04-15T10:05:03;97583.34;;;6.73;100.00
29907;BME280;16776;50.958;10.994;2023-04-15T10:07:30;97595.06;;;6.81;100.00
29907;BME280;16776;50.958;10.994;2023-04-15T10:09:58;97587.38;;;6.83;100.00
29907;BME280;16776;50.958;10.994;2023-04-15T10:12:26;97586.50;;;6.84;100.00
29907;BME280;16776;50.958;10.994;2023-04-15T10:14:57;97591.44;;;6.90;100.00
29907;BME280;16776;50.958;10.994;2023-04-15T10:17:27;97593.03;;;6.92;100.00
29907;BME280;16776;50.958;10.994;2023-04-15T10:19:54;97598.19;;;6.91;100.00
29907;BME280;16776;50.958;10.994;2023-04-15T10:22:21;97595.56;;;6.94;100.00
29907;BME280;16776;50.958;10.994;2023-04-15T10:24:49;97608.28;;;6.97;100.00
29907;BME280;16776;50.958;10.994;2023-04-15T10:27:17;97597.16;;;6.98;100.00
29907;BME280;16776;50.958;10.994;2023-04-15T10:29:43;97596.28;;;6.99;100.00
29907;BME280;16776;50.958;10.994;2023-04-15T10:32:11;97602.19;;;7.01;100.00
29907;BME280;16776;50.958;10.994;2023-04-15T10:34:39;97609.75;;;7.04;100.00
29907;BME280;16776;50.958;10.994;2023-04-15T10:37:08;97608.91;;;7.03;100.00
29907;BME280;16776;50.958;10.994;2023-04-15T10:39:40;97608.78;;;7.10;100.00
29907;BME280;16776;50.958;10.994;2023-04-15T10:42:10;97596.09;;;7.05;100.00
29907;BME280;16776;50.958;10.994;2023-04-15T10:44:37;97595.22;;;7.06;100.00
29907;BME280;16776;50.958;10.994;2023-04-15T10:47:09;97601.91;;;7.10;100.00
29907;BME280;16776;50.958;10.994;2023-04-15T10:49:44;97604.34;;;7.15;100.00
29907;BME280;16776;50.958;10.994;2023-04-15T10:52:11;97604.47;;;7.10;100.00
29907;BME280;16776;50.958;10.994;2023-04-15T10:54:39;97610.38;;;7.12;100.00
29907;BME280;16776;50.958;10.994;2023-04-15T10:57:08;97612.88;;;7.15;100.00
29907;BME280;16776;50.958;10.994;2023-04-15T10:59:36;97613.66;;;7.17;100.00
29907;BME280;16776;50.958;10.994;2023-04-15T11:02:04;97616.13;;;7.20;100.00
29907;BME280;16776;50.958;10.994;2023-04-15T11:04:51;97616.69;;;7.30;100.00
29907;BME280;16776;50.958;10.994;2023-04-15T11:07:33;97616.66;;;7.31;100.00
29907;BME280;16776;50.958;10.994;2023-04-15T11:10:00;97621.13;;;7.25;100.00
29907;BME280;16776;50.958;10.994;2023-04-15T11:12:33;97619.16;;;7.33;100.00
29907;BME280;16776;50.958;10.994;2023-04-15T11:15:27;97621.56;;;7.39;100.00
29907;BME280;16776;50.958;10.994;2023-04-15T11:17:54;97627.78;;;7.30;100.00
29907;BME280;16776;50.958;10.994;2023-04-15T11:20:23;97627.66;;;7.35;100.00
29907;BME280;16776;50.958;10.994;2023-04-15T11:22:50;97617.53;;;7.30;100.00
29907;BME280;16776;50.958;10.994;2023-04-15T11:25:21;97636.00;;;7.41;100.00
29907;BME280;16776;50.958;10.994;2023-04-15T11:27:48;97637.75;;;7.39;100.00
29907;BME280;16776;50.958;10.994;2023-04-15T11:30:17;97642.75;;;7.44;100.00
29907;BME280;16776;50.958;10.994;2023-04-15T11:32:45;97641.00;;;7.44;100.00
29907;BME280;16776;50.958;10.994;2023-04-15T11:35:12;97645.16;;;7.49;100.00
29907;BME280;16776;50.958;10.994;2023-04-15T11:37:40;97652.72;;;7.53;100.00
29907;BME280;16776;50.958;10.994;2023-04-15T11:40:08;97653.56;;;7.54;100.00
29907;BME280;16776;50.958;10.994;2023-04-15T11:42:35;97653.50;;;7.55;100.00
29907;BME280;16776;50.958;10.994;2023-04-15T11:45:10;97650.69;;;7.63;100.00
29907;BME280;16776;50.958;10.994;2023-04-15T11:47:37;97657.69;;;7.58;100.00
29907;BME280;16776;50.958;10.994;2023-04-15T11:50:13;97660.00;;;7.67;100.00
29907;BME280;16776;50.958;10.994;2023-04-15T11:52:51;97654.22;;;7.60;100.00
29907;BME280;16776;50.958;10.994;2023-04-15T11:55:18;97660.94;;;7.63;100.00
29907;BME280;16776;50.958;10.994;2023-04-15T11:57:44;97659.19;;;7.65;100.00
29907;BME280;16776;50.958;10.994;2023-04-15T12:00:12;97661.72;;;7.66;100.00
29907;BME280;16776;50.958;10.994;2023-04-15T12:02:39;97663.41;;;7.67;100.00
29907;BME280;16776;50.958;10.994;2023-04-15T12:05:07;97677.84;;;7.68;100.00
29907;BME280;16776;50.958;10.994;2023-04-15T12:07:58;97669.91;;;7.77;100.00
29907;BME280;16776;50.958;10.994;2023-04-15T12:10:25;97680.38;;;7.70;100.00
29907;BME280;16776;50.958;10.994;2023-04-15T12:12:51;97684.63;;;7.71;100.00
29907;BME280;16776;50.958;10.994;2023-04-15T12:15:20;97675.94;;;7.75;100.00
29907;BME280;16776;50.958;10.994;2023-04-15T12:17:47;97681.19;;;7.72;100.00
29907;BME280;16776;50.958;10.994;2023-04-15T12:20:20;97686.97;;;7.78;100.00
29907;BME280;16776;50.958;10.994;2023-04-15T12:22:46;97692.22;;;7.74;100.00
29907;BME280;16776;50.958;10.994;2023-04-15T12:25:14;97695.63;;;7.74;100.00
29907;BME280;16776;50.958;10.994;2023-04-15T12:27:50;97698.06;;;7.79;100.00
29907;BME280;16776;50.958;10.994;2023-04-15T12:30:17;97701.69;;;7.72;100.00
29907;BME280;16776;50.958;10.994;2023-04-15T12:32:44;97709.34;;;7.73;100.00
29907;BME280;16776;50.958;10.994;2023-04-15T12:35:12;97709.38;;;7.72;100.00
29907;BME280;16776;50.958;10.994;2023-04-15T12:37:38;97714.50;;;7.72;100.00
29907;BME280;16776;50.958;10.994;2023-04-15T12:40:07;97714.41;;;7.75;100.00
29907;BME280;16776;50.958;10.994;2023-04-15T12:42:35;97708.44;;;7.74;100.00
29907;BME280;16776;50.958;10.994;2023-04-15T12:45:02;97722.97;;;7.74;100.00
29907;BME280;16776;50.958;10.994;2023-04-15T12:47:29;97722.16;;;7.73;100.00
29907;BME280;16776;50.958;10.994;2023-04-15T12:49:55;97729.78;;;7.75;100.00
29907;BME280;16776;50.958;10.994;2023-04-15T12:52:22;97731.50;;;7.74;100.00
29907;BME280;16776;50.958;10.994;2023-04-15T12:54:49;97728.88;;;7.76;100.00